sensor_id;sensor_type;location;lat;lon;timestamp;P1;durP1;ratioP1;P2;durP2;ratioP2
5491;SDS011;2768;53.540;10.224;2024-01-06T00:00:18;3.93;;;3.57;;
5491;SDS011;2768;53.540;10.224;2024-01-06T00:06:14;5.20;;;4.40;;
5491;SDS011;2768;53.540;10.224;2024-01-06T00:12:07;4.77;;;3.90;;
5491;SDS011;2768;53.540;10.224;2024-01-06T00:18:01;4.20;;;3.90;;
5491;SDS011;2768;53.540;10.224;2024-01-06T00:23:56;4.30;;;3.90;;
5491;SDS011;2768;53.540;10.224;2024-01-06T00:29:49;4.43;;;4.03;;
5491;SDS011;2768;53.540;10.224;2024-01-06T00:35:43;4.70;;;4.20;;
5491;SDS011;2768;53.540;10.224;2024-01-06T00:41:37;5.20;;;4.70;;
5491;SDS011;2768;53.540;10.224;2024-01-06T00:47:30;4.97;;;4.43;;
5491;SDS011;2768;53.540;10.224;2024-01-06T00:53:24;5.73;;;4.10;;
5491;SDS011;2768;53.540;10.224;2024-01-06T00:59:19;5.37;;;4.27;;
5491;SDS011;2768;53.540;10.224;2024-01-06T01:05:12;4.30;;;3.90;;
5491;SDS011;2768;53.540;10.224;2024-01-06T01:11:05;5.17;;;4.67;;
5491;SDS011;2768;53.540;10.224;2024-01-06T01:17:00;5.40;;;4.80;;
5491;SDS011;2768;53.540;10.224;2024-01-06T01:22:53;5.23;;;4.73;;
5491;SDS011;2768;53.540;10.224;2024-01-06T01:28:46;4.97;;;4.47;;
5491;SDS011;2768;53.540;10.224;2024-01-06T01:34:41;6.33;;;4.80;;
5491;SDS011;2768;53.540;10.224;2024-01-06T01:40:34;4.60;;;4.20;;
5491;SDS011;2768;53.540;10.224;2024-01-06T01:46:28;4.53;;;4.10;;
5491;SDS011;2768;53.540;10.224;2024-01-06T01:52:24;5.60;;;4.90;;
5491;SDS011;2768;53.540;10.224;2024-01-06T01:58:17;4.60;;;4.20;;
5491;SDS011;2768;53.540;10.224;2024-01-06T02:04:11;5.13;;;4.67;;
5491;SDS011;2768;53.540;10.224;2024-01-06T02:10:07;6.27;;;4.93;;
5491;SDS011;2768;53.540;10.224;2024-01-06T02:16:01;5.87;;;5.10;;
5491;SDS011;2768;53.540;10.224;2024-01-06T02:21:57;6.10;;;5.50;;
5491;SDS011;2768;53.540;10.224;2024-01-06T02:27:50;7.17;;;5.10;;
5491;SDS011;2768;53.540;10.224;2024-01-06T02:33:43;6.03;;;5.37;;
5491;SDS011;2768;53.540;10.224;2024-01-06T02:39:38;5.87;;;5.30;;
5491;SDS011;2768;53.540;10.224;2024-01-06T02:45:31;5.10;;;4.60;;
5491;SDS011;2768;53.540;10.224;2024-01-06T02:51:25;5.80;;;4.83;;
5491;SDS011;2768;53.540;10.224;2024-01-06T02:57:20;5.50;;;4.70;;
5491;SDS011;2768;53.540;10.224;2024-01-06T03:03:13;4.93;;;4.47;;
5491;SDS011;2768;53.540;10.224;2024-01-06T03:09:06;4.90;;;4.50;;
5491;SDS011;2768;53.540;10.224;2024-01-06T03:15:01;5.60;;;5.00;;
5491;SDS011;2768;53.540;10.224;2024-01-06T03:20:55;5.00;;;4.53;;
5491;SDS011;2768;53.540;10.224;2024-01-06T03:26:48;4.90;;;4.47;;
5491;SDS011;2768;53.540;10.224;2024-01-06T03:32:43;5.70;;;4.90;;
5491;SDS011;2768;53.540;10.224;2024-01-06T03:38:36;4.97;;;4.57;;
5491;SDS011;2768;53.540;10.224;2024-01-06T03:44:29;4.63;;;4.23;;
5491;SDS011;2768;53.540;10.224;2024-01-06T03:50:26;5.20;;;4.70;;
5491;SDS011;2768;53.540;10.224;2024-01-06T03:56:20;5.50;;;5.00;;
5491;SDS011;2768;53.540;10.224;2024-01-06T04:02:13;5.27;;;4.77;;
5491;SDS011;2768;53.540;10.224;2024-01-06T04:08:08;4.97;;;4.57;;
5491;SDS011;2768;53.540;10.224;2024-01-06T04:14:01;4.60;;;4.20;;
5491;SDS011;2768;53.540;10.224;2024-01-06T04:19:54;5.73;;;5.13;;
5491;SDS011;2768;53.540;10.224;2024-01-06T04:25:49;5.40;;;4.90;;
5491;SDS011;2768;53.540;10.224;2024-01-06T04:31:43;5.53;;;4.80;;
5491;SDS011;2768;53.540;10.224;2024-01-06T04:37:36;5.43;;;4.83;;
5491;SDS011;2768;53.540;10.224;2024-01-06T04:43:30;5.57;;;5.03;;
5491;SDS011;2768;53.540;10.224;2024-01-06T04:49:24;5.70;;;4.77;;
5491;SDS011;2768;53.540;10.224;2024-01-06T04:55:17;5.83;;;5.33;;
5491;SDS011;2768;53.540;10.224;2024-01-06T05:01:12;6.37;;;5.77;;
5491;SDS011;2768;53.540;10.224;2024-01-06T05:07:06;5.90;;;5.40;;
5491;SDS011;2768;53.540;10.224;2024-01-06T05:12:59;5.43;;;4.83;;
5491;SDS011;2768;53.540;10.224;2024-01-06T05:18:54;6.00;;;5.50;;
5491;SDS011;2768;53.540;10.224;2024-01-06T05:24:47;5.87;;;5.27;;
5491;SDS011;2768;53.540;10.224;2024-01-06T05:30:44;5.97;;;5.43;;
5491;SDS011;2768;53.540;10.224;2024-01-06T05:36:39;6.07;;;5.47;;
5491;SDS011;2768;53.540;10.224;2024-01-06T05:42:32;6.10;;;5.50;;
5491;SDS011;2768;53.540;10.224;2024-01-06T05:48:26;6.60;;;5.87;;
5491;SDS011;2768;53.540;10.224;2024-01-06T05:54:21;6.77;;;6.07;;
5491;SDS011;2768;53.540;10.224;2024-01-06T06:00:14;6.03;;;5.43;;
5491;SDS011;2768;53.540;10.224;2024-01-06T06:06:08;6.33;;;5.73;;
5491;SDS011;2768;53.540;10.224;2024-01-06T06:12:03;6.80;;;6.10;;
5491;SDS011;2768;53.540;10.224;2024-01-06T06:17:57;7.17;;;6.07;;
5491;SDS011;2768;53.540;10.224;2024-01-06T06:23:52;5.97;;;5.37;;
5491;SDS011;2768;53.540;10.224;2024-01-06T06:29:46;7.27;;;6.33;;
5491;SDS011;2768;53.540;10.224;2024-01-06T06:35:39;6.70;;;5.70;;
5491;SDS011;2768;53.540;10.224;2024-01-06T06:41:32;6.60;;;6.00;;
5491;SDS011;2768;53.540;10.224;2024-01-06T06:47:27;6.43;;;5.83;;
5491;SDS011;2768;53.540;10.224;2024-01-06T06:53:20;7.13;;;6.43;;
5491;SDS011;2768;53.540;10.224;2024-01-06T06:59:14;7.23;;;6.17;;
5491;SDS011;2768;53.540;10.224;2024-01-06T07:05:09;6.93;;;6.23;;
5491;SDS011;2768;53.540;10.224;2024-01-06T07:11:02;6.90;;;6.20;;
5491;SDS011;2768;53.540;10.224;2024-01-06T07:16:55;7.70;;;6.70;;
5491;SDS011;2768;53.540;10.224;2024-01-06T07:22:50;7.20;;;6.27;;
5491;SDS011;2768;53.540;10.224;2024-01-06T07:28:43;6.77;;;5.93;;
5491;SDS011;2768;53.540;10.224;2024-01-06T07:34:37;6.37;;;5.77;;
5491;SDS011;2768;53.540;10.224;2024-01-06T07:40:31;8.70;;;7.10;;
5491;SDS011;2768;53.540;10.224;2024-01-06T07:46:24;6.63;;;6.00;;
5491;SDS011;2768;53.540;10.224;2024-01-06T07:52:18;6.80;;;5.77;;
5491;SDS011;2768;53.540;10.224;2024-01-06T07:58:12;6.97;;;6.20;;
5491;SDS011;2768;53.540;10.224;2024-01-06T08:04:06;6.27;;;5.67;;
5491;SDS011;2768;53.540;10.224;2024-01-06T08:09:59;8.03;;;6.13;;
5491;SDS011;2768;53.540;10.224;2024-01-06T08:15:57;8.20;;;6.67;;
5491;SDS011;2768;53.540;10.224;2024-01-06T08:21:52;8.57;;;7.07;;
5491;SDS011;2768;53.540;10.224;2024-01-06T08:27:45;6.80;;;6.20;;
5491;SDS011;2768;53.540;10.224;2024-01-06T08:33:40;6.10;;;5.50;;
5491;SDS011;2768;53.540;10.224;2024-01-06T08:39:34;7.20;;;6.10;;
5491;SDS011;2768;53.540;10.224;2024-01-06T08:45:28;6.67;;;5.77;;
5491;SDS011;2768;53.540;10.224;2024-01-06T08:51:23;6.80;;;6.10;;
5491;SDS011;2768;53.540;10.224;2024-01-06T08:57:18;6.50;;;5.90;;
5491;SDS011;2768;53.540;10.224;2024-01-06T09:03:11;10.57;;;6.40;;
5491;SDS011;2768;53.540;10.224;2024-01-06T09:09:06;7.10;;;6.40;;
5491;SDS011;2768;53.540;10.224;2024-01-06T09:15:00;7.80;;;6.53;;
5491;SDS011;2768;53.540;10.224;2024-01-06T09:20:53;8.73;;;7.20;;
5491;SDS011;2768;53.540;10.224;2024-01-06T09:26:49;7.10;;;6.10;;
5491;SDS011;2768;53.540;10.224;2024-01-06T09:32:42;8.23;;;6.23;;
5491;SDS011;2768;53.540;10.224;2024-01-06T09:38:36;7.93;;;6.97;;
5491;SDS011;2768;53.540;10.224;2024-01-06T09:44:32;6.17;;;5.57;;
5491;SDS011;2768;53.540;10.224;2024-01-06T09:50:25;7.87;;;6.83;;
5491;SDS011;2768;53.540;10.224;2024-01-06T09:56:19;7.50;;;6.67;;
5491;SDS011;2768;53.540;10.224;2024-01-06T10:02:15;8.37;;;7.20;;
5491;SDS011;2768;53.540;10.224;2024-01-06T10:08:09;7.33;;;6.33;;
5491;SDS011;2768;53.540;10.224;2024-01-06T10:14:03;7.33;;;6.33;;
5491;SDS011;2768;53.540;10.224;2024-01-06T10:19:57;7.70;;;5.93;;
5491;SDS011;2768;53.540;10.224;2024-01-06T10:25:53;7.20;;;6.30;;
5491;SDS011;2768;53.540;10.224;2024-01-06T10:31:51;7.17;;;6.47;;
5491;SDS011;2768;53.540;10.224;2024-01-06T10:37:49;6.13;;;5.53;;
5491;SDS011;2768;53.540;10.224;2024-01-06T10:43:43;6.60;;;5.50;;
5491;SDS011;2768;53.540;10.224;2024-01-06T10:49:38;6.00;;;5.50;;
5491;SDS011;2768;53.540;10.224;2024-01-06T10:55:34;6.30;;;5.70;;
5491;SDS011;2768;53.540;10.224;2024-01-06T11:01:27;7.40;;;5.70;;
5491;SDS011;2768;53.540;10.224;2024-01-06T11:07:24;6.77;;;5.60;;
5491;SDS011;2768;53.540;10.224;2024-01-06T11:13:22;5.83;;;5.27;;
5491;SDS011;2768;53.540;10.224;2024-01-06T11:25:36;6.13;;;5.13;;
5491;SDS011;2768;53.540;10.224;2024-01-06T11:31:35;6.43;;;5.20;;
5491;SDS011;2768;53.540;10.224;2024-01-06T11:37:34;5.10;;;4.57;;
5491;SDS011;2768;53.540;10.224;2024-01-06T11:43:29;5.50;;;5.00;;
5491;SDS011;2768;53.540;10.224;2024-01-06T11:49:26;6.40;;;4.60;;
5491;SDS011;2768;53.540;10.224;2024-01-06T11:55:20;5.53;;;4.50;;
5491;SDS011;2768;53.540;10.224;2024-01-06T12:01:14;4.80;;;4.40;;
5491;SDS011;2768;53.540;10.224;2024-01-06T12:07:08;5.33;;;4.53;;
5491;SDS011;2768;53.540;10.224;2024-01-06T12:13:05;4.17;;;3.87;;
5491;SDS011;2768;53.540;10.224;2024-01-06T12:19:00;4.60;;;4.20;;
5491;SDS011;2768;53.540;10.224;2024-01-06T12:24:58;4.97;;;4.47;;
5491;SDS011;2768;53.540;10.224;2024-01-06T12:30:53;3.83;;;3.50;;
5491;SDS011;2768;53.540;10.224;2024-01-06T12:36:47;5.70;;;3.87;;
5491;SDS011;2768;53.540;10.224;2024-01-06T12:42:47;5.10;;;4.17;;
5491;SDS011;2768;53.540;10.224;2024-01-06T12:48:40;3.60;;;3.30;;
5491;SDS011;2768;53.540;10.224;2024-01-06T12:54:33;5.07;;;3.33;;
5491;SDS011;2768;53.540;10.224;2024-01-06T13:00:28;4.10;;;3.70;;
5491;SDS011;2768;53.540;10.224;2024-01-06T13:06:26;4.17;;;3.70;;
5491;SDS011;2768;53.540;10.224;2024-01-06T13:12:20;3.57;;;3.27;;
5491;SDS011;2768;53.540;10.224;2024-01-06T13:18:16;3.93;;;3.60;;
5491;SDS011;2768;53.540;10.224;2024-01-06T13:24:10;3.57;;;3.13;;
5491;SDS011;2768;53.540;10.224;2024-01-06T13:30:04;3.60;;;3.30;;
5491;SDS011;2768;53.540;10.224;2024-01-06T13:36:00;4.77;;;3.90;;
5491;SDS011;2768;53.540;10.224;2024-01-06T13:41:53;3.40;;;3.00;;
5491;SDS011;2768;53.540;10.224;2024-01-06T13:47:46;3.83;;;3.53;;
5491;SDS011;2768;53.540;10.224;2024-01-06T13:53:41;3.03;;;2.80;;
5491;SDS011;2768;53.540;10.224;2024-01-06T13:59:35;4.00;;;3.30;;
5491;SDS011;2768;53.540;10.224;2024-01-06T14:05:33;3.40;;;3.10;;
5491;SDS011;2768;53.540;10.224;2024-01-06T14:11:28;3.07;;;2.77;;
5491;SDS011;2768;53.540;10.224;2024-01-06T14:17:22;3.43;;;3.23;;
5491;SDS011;2768;53.540;10.224;2024-01-06T14:23:16;4.30;;;3.40;;
5491;SDS011;2768;53.540;10.224;2024-01-06T14:29:11;3.47;;;3.27;;
5491;SDS011;2768;53.540;10.224;2024-01-06T14:35:08;3.17;;;2.97;;
5491;SDS011;2768;53.540;10.224;2024-01-06T14:41:03;3.67;;;3.47;;
5491;SDS011;2768;53.540;10.224;2024-01-06T14:46:58;3.00;;;2.63;;
5491;SDS011;2768;53.540;10.224;2024-01-06T14:52:51;3.40;;;3.07;;
5491;SDS011;2768;53.540;10.224;2024-01-06T14:58:44;3.77;;;3.47;;
5491;SDS011;2768;53.540;10.224;2024-01-06T15:04:39;3.93;;;3.63;;
5491;SDS011;2768;53.540;10.224;2024-01-06T15:10:33;3.30;;;3.10;;
5491;SDS011;2768;53.540;10.224;2024-01-06T15:16:26;3.37;;;3.17;;
5491;SDS011;2768;53.540;10.224;2024-01-06T15:22:21;3.90;;;3.60;;
5491;SDS011;2768;53.540;10.224;2024-01-06T15:28:14;4.10;;;3.70;;
5491;SDS011;2768;53.540;10.224;2024-01-06T15:34:07;5.50;;;3.97;;
5491;SDS011;2768;53.540;10.224;2024-01-06T15:46:25;4.37;;;4.00;;
5491;SDS011;2768;53.540;10.224;2024-01-06T15:52:19;5.00;;;3.80;;
5491;SDS011;2768;53.540;10.224;2024-01-06T15:58:14;5.17;;;3.90;;
5491;SDS011;2768;53.540;10.224;2024-01-06T16:04:08;5.20;;;4.70;;
5491;SDS011;2768;53.540;10.224;2024-01-06T16:10:02;5.77;;;5.10;;
5491;SDS011;2768;53.540;10.224;2024-01-06T16:15:57;5.63;;;4.30;;
5491;SDS011;2768;53.540;10.224;2024-01-06T16:21:50;4.73;;;3.80;;
5491;SDS011;2768;53.540;10.224;2024-01-06T16:27:57;5.90;;;4.73;;
5491;SDS011;2768;53.540;10.224;2024-01-06T16:33:52;6.00;;;4.17;;
5491;SDS011;2768;53.540;10.224;2024-01-06T16:39:46;5.10;;;4.60;;
5491;SDS011;2768;53.540;10.224;2024-01-06T16:45:40;3.87;;;3.50;;
5491;SDS011;2768;53.540;10.224;2024-01-06T16:51:35;4.63;;;3.90;;
5491;SDS011;2768;53.540;10.224;2024-01-06T16:57:29;4.73;;;4.10;;
5491;SDS011;2768;53.540;10.224;2024-01-06T17:03:23;8.97;;;7.30;;
5491;SDS011;2768;53.540;10.224;2024-01-06T17:09:18;5.93;;;5.43;;
5491;SDS011;2768;53.540;10.224;2024-01-06T17:15:11;8.17;;;5.53;;
5491;SDS011;2768;53.540;10.224;2024-01-06T17:21:07;11.40;;;7.50;;
5491;SDS011;2768;53.540;10.224;2024-01-06T17:27:03;10.53;;;7.00;;
5491;SDS011;2768;53.540;10.224;2024-01-06T17:32:56;5.50;;;4.53;;
5491;SDS011;2768;53.540;10.224;2024-01-06T17:38:49;4.87;;;3.70;;
5491;SDS011;2768;53.540;10.224;2024-01-06T17:44:44;6.00;;;5.40;;
5491;SDS011;2768;53.540;10.224;2024-01-06T17:50:37;5.30;;;4.80;;
5491;SDS011;2768;53.540;10.224;2024-01-06T17:56:31;4.03;;;3.63;;
5491;SDS011;2768;53.540;10.224;2024-01-06T18:02:26;5.33;;;3.73;;
5491;SDS011;2768;53.540;10.224;2024-01-06T18:08:19;4.97;;;4.30;;
5491;SDS011;2768;53.540;10.224;2024-01-06T18:14:13;5.10;;;4.33;;
5491;SDS011;2768;53.540;10.224;2024-01-06T18:20:08;5.50;;;4.33;;
5491;SDS011;2768;53.540;10.224;2024-01-06T18:26:02;4.30;;;3.90;;
5491;SDS011;2768;53.540;10.224;2024-01-06T18:31:56;6.50;;;4.40;;
5491;SDS011;2768;53.540;10.224;2024-01-06T18:37:51;6.83;;;4.80;;
5491;SDS011;2768;53.540;10.224;2024-01-06T18:43:44;5.17;;;4.30;;
5491;SDS011;2768;53.540;10.224;2024-01-06T18:49:37;4.47;;;4.07;;
5491;SDS011;2768;53.540;10.224;2024-01-06T18:55:32;4.33;;;3.90;;
5491;SDS011;2768;53.540;10.224;2024-01-06T19:01:26;4.33;;;3.87;;
5491;SDS011;2768;53.540;10.224;2024-01-06T19:07:20;5.60;;;3.83;;
5491;SDS011;2768;53.540;10.224;2024-01-06T19:13:16;4.20;;;3.70;;
5491;SDS011;2768;53.540;10.224;2024-01-06T19:19:09;6.03;;;3.67;;
5491;SDS011;2768;53.540;10.224;2024-01-06T19:25:03;3.90;;;3.47;;
5491;SDS011;2768;53.540;10.224;2024-01-06T19:30:59;5.93;;;5.33;;
5491;SDS011;2768;53.540;10.224;2024-01-06T19:36:52;6.97;;;5.40;;
5491;SDS011;2768;53.540;10.224;2024-01-06T19:42:47;3.03;;;2.80;;
5491;SDS011;2768;53.540;10.224;2024-01-06T19:48:42;5.43;;;3.37;;
5491;SDS011;2768;53.540;10.224;2024-01-06T19:54:36;3.37;;;3.07;;
5491;SDS011;2768;53.540;10.224;2024-01-06T20:00:30;3.57;;;2.83;;
5491;SDS011;2768;53.540;10.224;2024-01-06T20:06:25;4.53;;;3.87;;
5491;SDS011;2768;53.540;10.224;2024-01-06T20:12:19;3.57;;;3.20;;
5491;SDS011;2768;53.540;10.224;2024-01-06T20:18:13;3.77;;;3.47;;
5491;SDS011;2768;53.540;10.224;2024-01-06T20:24:09;3.67;;;3.27;;
5491;SDS011;2768;53.540;10.224;2024-01-06T20:30:03;3.80;;;3.27;;
5491;SDS011;2768;53.540;10.224;2024-01-06T20:35:58;4.03;;;3.03;;
5491;SDS011;2768;53.540;10.224;2024-01-06T20:41:53;5.07;;;3.70;;
5491;SDS011;2768;53.540;10.224;2024-01-06T20:47:46;5.10;;;3.70;;
5491;SDS011;2768;53.540;10.224;2024-01-06T20:53:40;3.87;;;3.47;;
5491;SDS011;2768;53.540;10.224;2024-01-06T20:59:35;3.67;;;3.37;;
5491;SDS011;2768;53.540;10.224;2024-01-06T21:05:29;4.30;;;3.50;;
5491;SDS011;2768;53.540;10.224;2024-01-06T21:11:22;3.70;;;3.00;;
5491;SDS011;2768;53.540;10.224;2024-01-06T21:17:17;3.97;;;3.00;;
5491;SDS011;2768;53.540;10.224;2024-01-06T21:23:11;4.33;;;2.90;;
5491;SDS011;2768;53.540;10.224;2024-01-06T21:29:05;2.70;;;2.50;;
5491;SDS011;2768;53.540;10.224;2024-01-06T21:35:00;2.40;;;1.97;;
5491;SDS011;2768;53.540;10.224;2024-01-06T21:40:55;4.07;;;2.70;;
5491;SDS011;2768;53.540;10.224;2024-01-06T21:46:49;2.57;;;2.37;;
5491;SDS011;2768;53.540;10.224;2024-01-06T21:52:44;2.27;;;2.13;;
5491;SDS011;2768;53.540;10.224;2024-01-06T21:58:38;2.60;;;2.30;;
5491;SDS011;2768;53.540;10.224;2024-01-06T22:04:31;2.53;;;2.33;;
5491;SDS011;2768;53.540;10.224;2024-01-06T22:10:26;2.03;;;1.77;;
5491;SDS011;2768;53.540;10.224;2024-01-06T22:16:24;3.07;;;2.43;;
5491;SDS011;2768;53.540;10.224;2024-01-06T22:22:18;2.27;;;1.90;;
5491;SDS011;2768;53.540;10.224;2024-01-06T22:28:13;2.50;;;2.20;;
5491;SDS011;2768;53.540;10.224;2024-01-06T22:34:07;3.43;;;2.40;;
5491;SDS011;2768;53.540;10.224;2024-01-06T22:40:01;2.60;;;2.17;;
5491;SDS011;2768;53.540;10.224;2024-01-06T22:45:58;2.30;;;2.10;;
5491;SDS011;2768;53.540;10.224;2024-01-06T22:51:52;3.67;;;2.27;;
5491;SDS011;2768;53.540;10.224;2024-01-06T22:57:45;5.47;;;3.00;;
5491;SDS011;2768;53.540;10.224;2024-01-06T23:03:40;2.00;;;1.80;;
5491;SDS011;2768;53.540;10.224;2024-01-06T23:09:33;2.03;;;1.80;;
5491;SDS011;2768;53.540;10.224;2024-01-06T23:15:28;2.43;;;2.20;;
5491;SDS011;2768;53.540;10.224;2024-01-06T23:21:23;2.40;;;1.80;;
5491;SDS011;2768;53.540;10.224;2024-01-06T23:27:17;1.53;;;1.43;;
5491;SDS011;2768;53.540;10.224;2024-01-06T23:33:10;2.73;;;1.90;;
5491;SDS011;2768;53.540;10.224;2024-01-06T23:39:05;3.60;;;2.23;;
5491;SDS011;2768;53.540;10.224;2024-01-06T23:44:58;2.63;;;2.23;;
5491;SDS011;2768;53.540;10.224;2024-01-06T23:50:52;3.07;;;2.53;;
5491;SDS011;2768;53.540;10.224;2024-01-06T23:56:46;1.63;;;1.53;;
